Time;durP1;ratioP1;P1;durP2;ratioP2;P2;SDS_P1;SDS_P2;PMS_P1;PMS_P2;Temp;Humidity;BMP_temperature;BMP_pressure;BME280_temperature;BME280_humidity;BME280_pressure;Samples;Min_cycle;Max_cycle;Signal;HPM_P1;HPM_P2
2021/03/14 00:00:59;;;;;;;2.37;0.60;;;;;;;4.34;96.23;97540.13;4905825;28;102976;-76
2021/03/14 00:03:29;;;;;;;1.77;0.70;;;;;;;4.26;96.69;97533.72;4904391;28;103148;-76
2021/03/14 00:05:58;;;;;;;0.87;0.60;;;;;;;4.36;97.37;97529.53;4886798;28;104172;-75
2021/03/14 00:08:27;;;;;;;1.60;0.70;;;;;;;4.30;97.35;97537.78;4905218;28;103157;-76
2021/03/14 00:10:56;;;;;;;1.10;0.63;;;;;;;4.43;97.43;97538.69;4904182;28;102849;-76
2021/03/14 00:13:26;;;;;;;1.50;0.67;;;;;;;4.37;96.89;97542.53;4905119;28;103097;-76
2021/03/14 00:15:54;;;;;;;1.03;0.80;;;;;;;4.36;96.58;97556.53;4904147;28;103818;-75
2021/03/14 00:18:27;;;;;;;0.80;0.50;;;;;;;4.43;96.99;97564.84;4908396;28;103981;-75
2021/03/14 00:20:54;;;;;;;2.07;0.70;;;;;;;4.39;97.65;97571.19;4904202;28;102952;-75
2021/03/14 00:23:21;;;;;;;1.93;0.60;;;;;;;4.37;98.02;97570.47;4908891;28;102990;-76
2021/03/14 00:25:48;;;;;;;2.10;0.60;;;;;;;4.33;97.11;97556.75;4923636;28;104266;-75
2021/03/14 00:28:18;;;;;;;0.73;0.43;;;;;;;4.45;97.63;97569.03;4910017;28;103115;-75
2021/03/14 00:30:47;;;;;;;1.07;0.70;;;;;;;4.33;97.74;97579.44;4905017;28;102977;-77
2021/03/14 00:33:14;;;;;;;2.00;0.90;;;;;;;4.30;97.76;97580.47;4903615;28;102794;-75
2021/03/14 00:35:42;;;;;;;1.00;0.73;;;;;;;4.12;97.67;97580.81;4898575;28;103816;-75
2021/03/14 00:38:09;;;;;;;0.60;0.50;;;;;;;4.07;98.06;97592.41;4891912;28;104290;-77
2021/03/14 00:40:36;;;;;;;0.40;0.40;;;;;;;4.14;97.86;97579.78;4886308;28;103078;-77
2021/03/14 00:43:06;;;;;;;0.80;0.60;;;;;;;4.35;97.54;97582.81;4887388;28;102882;-77
2021/03/14 00:45:34;;;;;;;0.70;0.60;;;;;;;4.23;97.07;97583.59;4885390;28;103914;-75
2021/03/14 00:48:05;;;;;;;0.53;0.47;;;;;;;4.18;97.52;97585.66;4868362;28;103248;-75
2021/03/14 00:50:34;;;;;;;0.80;0.40;;;;;;;4.15;97.88;97576.25;4868077;28;103135;-75
2021/03/14 00:53:01;;;;;;;1.90;0.50;;;;;;;4.10;97.74;97584.34;4872108;28;102803;-75
2021/03/14 00:55:31;;;;;;;1.27;0.67;;;;;;;4.22;97.17;97582.75;4901601;28;103678;-77
2021/03/14 00:57:58;;;;;;;0.40;0.40;;;;;;;4.24;97.63;97580.03;4880506;28;104000;-77
2021/03/14 01:00:26;;;;;;;0.40;0.40;;;;;;;4.28;97.77;97573.66;4920601;28;103173;-77
2021/03/14 01:02:53;;;;;;;0.83;0.40;;;;;;;4.25;97.01;97573.84;4901352;28;103208;-77
2021/03/14 01:05:24;;;;;;;0.70;0.40;;;;;;;4.20;97.27;97562.88;4886217;28;105868;-75
2021/03/14 01:07:52;;;;;;;0.30;0.30;;;;;;;4.09;96.83;97553.94;4917464;28;103659;-78
2021/03/14 01:10:19;;;;;;;0.30;0.30;;;;;;;4.22;96.85;97566.22;4899777;28;102868;-78
2021/03/14 01:12:49;;;;;;;0.37;0.30;;;;;;;4.29;96.44;97584.03;4907460;28;102916;-79
2021/03/14 01:15:22;;;;;;;2.10;0.30;;;;;;;4.35;96.47;97603.72;4883898;28;103338;-75
2021/03/14 01:17:54;;;;;;;0.40;0.30;;;;;;;4.34;96.72;97604.66;4897057;28;103622;-76
2021/03/14 01:20:23;;;;;;;0.40;0.33;;;;;;;4.20;96.61;97600.31;4915039;28;103040;-75
2021/03/14 01:22:52;;;;;;;0.40;0.40;;;;;;;4.10;96.98;97605.28;4916057;28;103137;-76
2021/03/14 01:25:19;;;;;;;1.60;0.30;;;;;;;4.11;97.99;97606.13;4920408;28;103493;-75
2021/03/14 01:27:53;;;;;;;0.80;0.37;;;;;;;3.92;97.11;97609.06;4903372;28;104144;-76
2021/03/14 01:30:21;;;;;;;0.40;0.40;;;;;;;4.04;97.08;97613.50;4922544;28;103153;-75
2021/03/14 01:32:50;;;;;;;0.40;0.40;;;;;;;4.16;97.20;97619.72;4919297;28;103261;-76
2021/03/14 01:35:18;;;;;;;0.40;0.40;;;;;;;3.97;96.98;97614.84;4910851;28;103368;-76
2021/03/14 01:37:46;;;;;;;0.33;0.33;;;;;;;3.97;97.13;97617.44;4913585;28;104919;-75
2021/03/14 01:40:16;;;;;;;0.80;0.40;;;;;;;3.98;97.22;97611.28;4925242;28;102854;-75
2021/03/14 01:42:44;;;;;;;0.50;0.40;;;;;;;4.16;96.90;97611.88;4925586;28;102889;-75
2021/03/14 01:45:12;;;;;;;0.30;0.30;;;;;;;4.20;96.60;97608.16;4893550;28;106418;-75
2021/03/14 01:47:43;;;;;;;0.57;0.40;;;;;;;4.20;96.43;97604.69;4907763;28;104633;-75
2021/03/14 01:50:12;;;;;;;0.43;0.40;;;;;;;4.27;96.46;97613.81;4909235;28;103867;-76
2021/03/14 01:52:40;;;;;;;0.80;0.40;;;;;;;4.17;96.15;97616.19;4925528;28;103516;-75
2021/03/14 01:55:09;;;;;;;0.57;0.30;;;;;;;4.23;96.69;97621.03;4917717;28;104336;-75
2021/03/14 01:57:37;;;;;;;0.40;0.40;;;;;;;4.16;97.61;97618.88;4923413;28;103417;-75
2021/03/14 02:00:08;;;;;;;0.77;0.37;;;;;;;4.06;97.81;97624.72;4906155;28;103184;-75
2021/03/14 02:02:40;;;;;;;0.33;0.30;;;;;;;4.04;97.37;97626.56;4910061;28;103227;-76
2021/03/14 02:05:09;;;;;;;0.30;0.30;;;;;;;4.11;97.59;97621.78;4903634;28;105907;-76
2021/03/14 02:07:40;;;;;;;0.40;0.40;;;;;;;4.05;97.59;97625.63;4920214;28;104271;-75
2021/03/14 02:10:10;;;;;;;1.43;0.33;;;;;;;3.85;97.92;97631.25;4919567;28;103357;-76
2021/03/14 02:12:43;;;;;;;0.30;0.30;;;;;;;3.97;97.63;97630.50;4908122;28;102650;-75
2021/03/14 02:15:13;;;;;;;0.40;0.40;;;;;;;3.97;97.05;97630.50;4915189;28;104010;-75
2021/03/14 02:17:43;;;;;;;0.30;0.30;;;;;;;3.92;98.28;97637.81;4899849;28;105460;-75
2021/03/14 02:20:13;;;;;;;0.93;0.30;;;;;;;3.86;98.56;97646.03;4923474;28;103111;-75
2021/03/14 02:22:43;;;;;;;0.40;0.40;;;;;;;3.83;97.45;97643.59;4905903;28;103042;-74
2021/03/14 02:25:15;;;;;;;2.40;0.77;;;;;;;3.81;97.42;97655.91;4923240;28;103842;-75
2021/03/14 02:27:44;;;;;;;1.10;1.00;;;;;;;3.78;97.78;97656.09;4925128;28;103967;-75
2021/03/14 02:30:13;;;;;;;0.90;0.70;;;;;;;3.71;96.77;97653.94;4907816;28;103196;-75
2021/03/14 02:32:42;;;;;;;2.90;0.60;;;;;;;3.77;97.46;97657.03;4925158;28;103109;-75
2021/03/14 02:35:10;;;;;;;1.33;0.80;;;;;;;3.69;97.89;97656.66;4885782;28;106803;-75
2021/03/14 02:37:38;;;;;;;1.87;0.70;;;;;;;3.64;97.45;97657.88;4919045;28;103862;-75
2021/03/14 02:40:07;;;;;;;2.10;0.97;;;;;;;3.59;97.47;97671.22;4901068;28;103005;-75
2021/03/14 02:42:37;;;;;;;1.17;0.70;;;;;;;3.63;98.27;97657.03;4916680;28;103049;-75
2021/03/14 02:45:09;;;;;;;1.87;0.90;;;;;;;3.67;97.71;97661.16;4922110;28;105946;-76
2021/03/14 02:47:38;;;;;;;1.40;0.90;;;;;;;3.76;98.18;97652.72;4910429;28;103388;-75
2021/03/14 02:50:12;;;;;;;1.83;0.80;;;;;;;3.75;97.11;97656.28;4924225;28;102808;-75
2021/03/14 02:52:40;;;;;;;2.13;1.37;;;;;;;3.68;98.05;97659.38;4917083;28;103750;-75
2021/03/14 02:55:10;;;;;;;1.00;1.00;;;;;;;3.78;97.48;97666.56;4923378;28;105843;-76
2021/03/14 02:57:39;;;;;;;3.17;1.00;;;;;;;3.67;97.38;97669.00;4915873;28;103262;-75
2021/03/14 03:00:13;;;;;;;1.53;1.00;;;;;;;3.74;97.92;97672.88;4924351;28;103074;-75
2021/03/14 03:02:44;;;;;;;1.30;1.20;;;;;;;3.76;97.56;97688.50;4888913;28;102886;-75
2021/03/14 03:05:15;;;;;;;1.93;1.20;;;;;;;3.75;97.35;97682.41;4889701;28;106165;-76
2021/03/14 03:07:45;;;;;;;1.87;1.23;;;;;;;3.85;97.11;97700.97;4924160;28;106200;-75
2021/03/14 03:10:13;;;;;;;2.23;1.40;;;;;;;3.84;97.52;97701.91;4923752;28;102654;-75
2021/03/14 03:12:41;;;;;;;2.40;1.40;;;;;;;3.93;96.97;97706.59;4916532;28;104381;-75
2021/03/14 03:15:12;;;;;;;1.97;1.40;;;;;;;3.78;96.32;97723.19;4924177;28;103773;-76
2021/03/14 03:17:39;;;;;;;2.50;1.37;;;;;;;3.80;96.76;97722.16;4901101;28;106075;-75
2021/03/14 03:20:23;;;;;;;2.47;1.43;;;;;;;3.88;97.20;97725.16;4918021;28;102898;-76
2021/03/14 03:22:51;;;;;;;3.00;1.33;;;;;;;3.85;96.82;97735.78;4902656;28;103220;-77
2021/03/14 03:25:18;;;;;;;1.73;0.97;;;;;;;3.87;96.72;97739.16;4883248;28;105210;-75
2021/03/14 03:27:45;;;;;;;1.17;1.07;;;;;;;3.81;96.38;97759.59;4900034;28;111446;-76
2021/03/14 03:30:17;;;;;;;0.83;0.83;;;;;;;3.71;96.01;97748.84;4901600;28;103167;-75
2021/03/14 03:32:45;;;;;;;1.20;1.10;;;;;;;3.78;97.30;97755.38;4897981;28;102842;-76
2021/03/14 03:35:16;;;;;;;1.30;0.90;;;;;;;3.75;97.56;97752.97;4883811;28;105222;-75
2021/03/14 03:37:43;;;;;;;1.53;0.83;;;;;;;3.76;97.03;97761.63;4900188;28;110213;-75
2021/03/14 03:40:12;;;;;;;1.90;1.00;;;;;;;3.75;96.69;97768.63;4898515;28;104076;-75
2021/03/14 03:42:47;;;;;;;2.10;1.00;;;;;;;3.71;96.63;97767.13;4881688;28;103088;-75
2021/03/14 03:45:16;;;;;;;1.10;0.80;;;;;;;3.63;96.75;97771.97;4895150;28;103935;-75
2021/03/14 03:47:44;;;;;;;1.40;0.90;;;;;;;3.76;96.63;97782.53;4904277;28;103348;-75
2021/03/14 03:50:14;;;;;;;1.90;0.90;;;;;;;3.69;96.30;97783.81;4898772;28;103139;-75
2021/03/14 03:52:43;;;;;;;0.83;0.80;;;;;;;3.73;96.57;97791.41;4899503;28;103316;-75
2021/03/14 03:55:12;;;;;;;0.87;0.87;;;;;;;3.72;95.58;97791.47;4898239;28;107047;-76
2021/03/14 03:57:39;;;;;;;1.00;0.90;;;;;;;3.72;95.09;97801.91;4899235;28;103837;-76
2021/03/14 04:00:11;;;;;;;1.47;0.83;;;;;;;3.75;95.75;97791.28;4906539;28;104309;-75
2021/03/14 04:02:40;;;;;;;0.97;0.93;;;;;;;3.75;95.84;97799.97;4899356;28;104148;-76
2021/03/14 04:05:09;;;;;;;1.23;0.83;;;;;;;3.73;95.94;97804.47;4901045;28;103722;-75
2021/03/14 04:07:37;;;;;;;1.83;1.00;;;;;;;3.77;96.21;97795.50;4898067;28;103937;-75
2021/03/14 04:10:09;;;;;;;2.40;1.10;;;;;;;3.72;96.10;97808.00;4900183;28;104202;-75
2021/03/14 04:12:38;;;;;;;1.40;0.87;;;;;;;3.68;95.10;97816.94;4900729;28;104113;-76
2021/03/14 04:15:07;;;;;;;0.83;0.80;;;;;;;3.77;96.59;97821.63;4900070;28;104242;-76
2021/03/14 04:17:36;;;;;;;0.80;0.80;;;;;;;3.80;95.91;97824.06;4900641;28;105900;-76
2021/03/14 04:20:06;;;;;;;1.07;0.73;;;;;;;3.71;96.06;97835.03;4896683;28;102952;-75
2021/03/14 04:22:34;;;;;;;2.67;0.90;;;;;;;3.63;96.25;97839.88;4880071;28;103100;-75
2021/03/14 04:25:02;;;;;;;1.77;1.00;;;;;;;3.65;96.53;97847.63;4866103;28;107527;-75
2021/03/14 04:27:30;;;;;;;1.83;1.00;;;;;;;3.62;96.73;97842.59;4895751;28;105229;-75
2021/03/14 04:29:58;;;;;;;0.70;0.70;;;;;;;3.65;96.25;97837.19;4899361;28;103263;-76
2021/03/14 04:32:26;;;;;;;1.93;0.80;;;;;;;3.56;95.67;97842.94;4900115;28;103437;-75
2021/03/14 04:34:54;;;;;;;1.87;1.10;;;;;;;3.59;96.47;97850.59;4898814;28;105925;-76
2021/03/14 04:37:23;;;;;;;1.30;0.93;;;;;;;3.45;96.81;97856.63;4896886;28;110195;-75
2021/03/14 04:39:51;;;;;;;2.37;1.00;;;;;;;3.48;95.96;97866.88;4898701;28;103091;-75
2021/03/14 04:42:18;;;;;;;1.40;0.90;;;;;;;3.40;96.26;97866.44;4899608;28;104096;-75
2021/03/14 04:44:46;;;;;;;2.80;1.20;;;;;;;3.42;96.53;97883.72;4900443;28;104924;-75
2021/03/14 04:47:13;;;;;;;1.70;1.00;;;;;;;3.60;96.58;97881.84;4900940;28;103765;-75
2021/03/14 04:49:40;;;;;;;1.40;0.90;;;;;;;3.59;96.15;97892.38;4898118;28;103241;-76
2021/03/14 04:52:08;;;;;;;1.00;0.90;;;;;;;3.65;96.35;97895.47;4899622;28;103066;-76
2021/03/14 04:54:38;;;;;;;3.17;0.90;;;;;;;3.46;96.23;97894.84;4898482;28;104105;-75
2021/03/14 04:57:07;;;;;;;2.17;1.00;;;;;;;3.50;96.07;97906.81;4901372;28;103674;-76
2021/03/14 04:59:37;;;;;;;1.07;0.70;;;;;;;3.65;95.71;97903.31;4899242;28;103301;-75
2021/03/14 05:02:06;;;;;;;1.10;0.80;;;;;;;3.58;95.57;97904.59;4897094;28;103196;-75
2021/03/14 05:04:35;;;;;;;1.53;0.93;;;;;;;3.59;95.09;97911.50;4900702;28;103850;-75
2021/03/14 05:07:02;;;;;;;2.27;1.00;;;;;;;3.57;95.61;97908.13;4892722;28;104096;-76
2021/03/14 05:09:30;;;;;;;1.10;0.80;;;;;;;3.53;95.17;97911.84;4897760;28;104140;-76
2021/03/14 05:11:59;;;;;;;2.53;1.10;;;;;;;3.50;95.00;97915.50;4895213;28;104109;-75
2021/03/14 05:14:27;;;;;;;2.70;0.90;;;;;;;3.38;94.95;97917.94;4897343;28;104280;-76
2021/03/14 05:16:54;;;;;;;1.70;1.03;;;;;;;3.46;93.89;97936.63;4898832;28;104340;-75
2021/03/14 05:19:22;;;;;;;4.33;1.10;;;;;;;3.58;94.09;97935.94;4881813;28;104075;-75
2021/03/14 05:21:58;;;;;;;2.10;0.90;;;;;;;3.47;94.08;97938.31;4896223;28;103952;-76
2021/03/14 05:24:25;;;;;;;5.07;1.10;;;;;;;3.44;93.64;97946.31;4896101;28;104176;-76
2021/03/14 05:26:54;;;;;;;1.43;0.97;;;;;;;3.55;92.99;97945.72;4898074;28;103663;-73
2021/03/14 05:29:24;;;;;;;1.70;1.00;;;;;;;3.47;92.60;97936.53;4896774;28;103220;-74
2021/03/14 05:31:53;;;;;;;0.80;0.80;;;;;;;3.50;92.92;97945.97;4899617;28;104056;-74
2021/03/14 05:34:20;;;;;;;3.50;0.87;;;;;;;3.42;92.56;97950.78;4897061;28;103755;-73
2021/03/14 05:36:47;;;;;;;2.20;0.90;;;;;;;3.42;92.46;97950.78;4896103;28;103811;-74
2021/03/14 05:39:15;;;;;;;0.87;0.87;;;;;;;3.48;92.73;97953.06;4898378;28;103928;-74
2021/03/14 05:41:43;;;;;;;1.67;1.10;;;;;;;3.43;92.01;97963.75;4899746;28;103526;-74
2021/03/14 05:44:11;;;;;;;2.47;0.90;;;;;;;3.50;92.17;97967.72;4897389;28;104320;-74
2021/03/14 05:46:40;;;;;;;0.97;0.77;;;;;;;3.50;91.59;97969.47;4880272;28;105698;-73
2021/03/14 05:49:10;;;;;;;1.90;0.83;;;;;;;3.54;91.72;97976.19;4896583;28;103338;-74
2021/03/14 05:51:42;;;;;;;2.73;0.90;;;;;;;3.58;91.49;97972.50;4880150;28;103292;-73
2021/03/14 05:54:11;;;;;;;1.47;0.70;;;;;;;3.48;92.39;97987.81;4899373;28;104032;-73
2021/03/14 05:56:40;;;;;;;1.90;1.07;;;;;;;3.48;91.31;97987.00;4892018;28;103812;-73
2021/03/14 05:59:09;;;;;;;2.47;0.80;;;;;;;3.58;91.35;98003.84;4891480;28;102656;-73
2021/03/14 06:01:40;;;;;;;2.57;1.10;;;;;;;3.70;91.90;98005.78;4893941;28;104140;-73
2021/03/14 06:04:11;;;;;;;2.17;0.90;;;;;;;3.59;90.79;98005.53;4874922;28;104490;-74
2021/03/14 06:06:38;;;;;;;3.07;1.00;;;;;;;3.62;90.55;98007.16;4893722;28;104437;-73
2021/03/14 06:09:05;;;;;;;2.67;0.83;;;;;;;3.78;90.88;98018.41;4876458;28;103087;-74
2021/03/14 06:11:33;;;;;;;2.60;0.97;;;;;;;3.77;90.41;98017.56;4901240;28;103116;-76
2021/03/14 06:14:01;;;;;;;3.57;1.10;;;;;;;3.81;89.71;98018.25;4894250;28;104336;-73
2021/03/14 06:16:29;;;;;;;2.47;1.20;;;;;;;3.80;89.63;98024.41;4893725;28;104220;-74
2021/03/14 06:18:57;;;;;;;2.73;1.07;;;;;;;3.72;90.02;98032.66;4900826;28;104361;-73
2021/03/14 06:21:26;;;;;;;3.37;1.50;;;;;;;3.65;89.25;98039.13;4895904;28;103094;-73
2021/03/14 06:23:59;;;;;;;2.40;1.20;;;;;;;3.68;90.60;98041.59;4895989;28;103706;-73
2021/03/14 06:26:40;;;;;;;4.10;1.80;;;;;;;3.64;89.23;98054.91;4896169;28;103905;-73
2021/03/14 06:29:24;;;;;;;3.23;1.13;;;;;;;3.70;89.48;98055.44;4886946;28;103086;-74
2021/03/14 06:31:52;;;;;;;5.73;1.70;;;;;;;3.72;89.11;98064.03;4900637;28;103467;-73
2021/03/14 06:34:30;;;;;;;3.30;1.50;;;;;;;3.77;89.48;98072.44;4898955;28;104321;-74
2021/03/14 06:36:59;;;;;;;2.80;1.40;;;;;;;3.70;89.26;98073.72;4900406;28;109306;-74
2021/03/14 06:39:28;;;;;;;3.07;1.40;;;;;;;3.83;88.96;98082.56;4900811;28;103126;-80
2021/03/14 06:41:55;;;;;;;3.17;1.40;;;;;;;3.78;88.96;98081.97;4902359;28;104787;-77
2021/03/14 06:44:42;;;;;;;4.33;1.73;;;;;;;3.75;88.88;98097.81;4901469;28;103898;-80
2021/03/14 06:47:10;;;;;;;4.20;1.40;;;;;;;3.84;87.84;98099.94;4898861;28;104745;-84
2021/03/14 06:49:40;;;;;;;3.03;1.30;;;;;;;3.93;88.55;98099.41;4902479;28;103969;-86
2021/03/14 06:52:08;;;;;;;2.97;1.23;;;;;;;3.95;87.36;98113.25;4874415;28;103219;-81
2021/03/14 06:54:37;;;;;;;1.73;1.33;;;;;;;3.93;88.00;98120.31;4906032;28;103378;-83
2021/03/14 06:57:07;;;;;;;1.30;1.20;;;;;;;3.89;87.81;98120.59;4885419;28;105078;-84
2021/03/14 06:59:36;;;;;;;2.80;1.10;;;;;;;4.02;86.98;98124.19;4904837;28;103197;-84
2021/03/14 07:02:05;;;;;;;3.47;1.43;;;;;;;4.09;87.26;98126.41;4905283;28;103092;-85
2021/03/14 07:04:40;;;;;;;4.07;1.80;;;;;;;4.27;85.81;98128.91;4881725;28;103442;-83
2021/03/14 07:07:13;;;;;;;2.60;1.03;;;;;;;4.14;85.79;98120.06;4882993;28;104198;-89
2021/03/14 07:09:41;;;;;;;3.83;1.27;;;;;;;4.04;85.24;98131.03;4903824;28;103878;-88
2021/03/14 07:12:21;;;;;;;2.33;1.20;;;;;;;4.16;83.45;98136.50;4871789;28;102987;-85
2021/03/14 07:14:48;;;;;;;2.70;1.30;;;;;;;4.36;84.27;98138.84;4889279;28;104117;-84
2021/03/14 07:17:40;;;;;;;1.87;1.20;;;;;;;4.61;83.60;98155.72;4907174;28;103740;-87
2021/03/14 07:20:12;;;;;;;4.73;1.40;;;;;;;4.50;83.60;98160.69;4860153;28;102948;-90
2021/03/14 07:22:39;;;;;;;2.93;1.30;;;;;;;4.49;82.31;98160.81;4886799;28;102687;-90
2021/03/14 07:25:20;;;;;;;3.73;1.20;;;;;;;4.44;83.39;98168.88;4909021;28;103813;-90
2021/03/14 07:27:48;;;;;;;4.50;1.50;;;;;;;4.33;82.25;98167.78;4908389;28;104214;-83
2021/03/14 07:30:18;;;;;;;3.33;1.30;;;;;;;4.47;82.87;98175.72;4886121;28;103135;-77
2021/03/14 07:32:47;;;;;;;2.67;1.20;;;;;;;4.62;83.44;98178.34;4897574;28;103006;-81
2021/03/14 07:35:16;;;;;;;3.40;1.03;;;;;;;4.60;82.64;98185.41;4878267;28;103450;-77
2021/03/14 07:37:44;;;;;;;3.77;1.43;;;;;;;4.66;82.73;98192.06;4875626;28;103777;-78
2021/03/14 07:40:13;;;;;;;4.10;1.40;;;;;;;4.51;82.64;98195.56;4875105;28;103355;-78
2021/03/14 07:42:41;;;;;;;3.53;1.37;;;;;;;4.69;82.90;98192.75;4878056;28;103715;-79
2021/03/14 07:45:10;;;;;;;2.20;1.83;;;;;;;4.71;83.37;98197.06;4874713;28;103357;-80
2021/03/14 07:47:39;;;;;;;2.83;1.23;;;;;;;4.70;82.42;98196.22;4877492;28;103646;-78
2021/03/14 07:50:08;;;;;;;1.73;0.97;;;;;;;4.66;81.18;98194.69;4878175;28;102578;-77
2021/03/14 07:52:39;;;;;;;2.90;1.20;;;;;;;4.75;81.60;98203.78;4880229;28;103213;-80
2021/03/14 07:55:12;;;;;;;3.47;1.70;;;;;;;4.76;81.65;98206.34;4880199;28;105357;-78
2021/03/14 07:57:43;;;;;;;4.97;1.90;;;;;;;4.73;81.92;98206.50;4879077;28;104157;-78
2021/03/14 08:00:36;;;;;;;3.07;1.77;;;;;;;4.70;81.80;98222.38;4878968;28;103216;-78
2021/03/14 08:03:05;;;;;;;7.13;1.70;;;;;;;4.64;81.69;98220.94;4866596;28;103302;-78
2021/03/14 08:05:47;;;;;;;3.00;1.20;;;;;;;4.62;80.02;98219.34;4874286;28;104364;-77
2021/03/14 08:08:45;;;;;;;1.77;1.20;;;;;;;4.96;80.46;98218.28;4874200;28;105468;-78
2021/03/14 08:11:23;;;;;;;7.80;1.30;;;;;;;4.82;80.15;98219.06;4879564;28;102840;-77
2021/03/14 08:13:51;;;;;;;2.83;1.40;;;;;;;5.03;80.38;98230.94;4875794;28;103066;-82
2021/03/14 08:16:18;;;;;;;3.80;1.10;;;;;;;5.28;79.65;98241.66;4878808;28;104859;-81
2021/03/14 08:18:48;;;;;;;2.63;0.90;;;;;;;5.01;78.88;98232.81;4877142;28;103971;-81
2021/03/14 08:21:39;;;;;;;3.50;1.23;;;;;;;5.04;79.00;98243.09;4873988;28;103116;-77
2021/03/14 08:24:16;;;;;;;7.47;1.60;;;;;;;5.12;78.73;98240.88;4861043;28;103093;-81
2021/03/14 08:26:44;;;;;;;5.80;1.53;;;;;;;5.21;77.90;98242.97;4875509;28;103386;-78
2021/03/14 08:29:17;;;;;;;3.73;1.53;;;;;;;5.13;77.81;98236.50;4876417;28;103927;-78
2021/03/14 08:31:53;;;;;;;2.43;1.60;;;;;;;5.83;77.79;98241.03;4878054;28;103250;-79
2021/03/14 08:34:44;;;;;;;2.97;1.73;;;;;;;5.64;75.43;98253.56;4872794;28;103018;-77
2021/03/14 08:37:24;;;;;;;4.63;1.40;;;;;;;5.60;75.52;98242.41;4872866;28;104079;-78
2021/03/14 08:39:59;;;;;;;5.23;1.67;;;;;;;6.16;75.08;98251.28;4873709;28;104180;-77
2021/03/14 08:42:54;;;;;;;3.13;1.10;;;;;;;6.00;72.63;98259.25;4875124;28;103007;-82
2021/03/14 08:45:28;;;;;;;3.73;1.37;;;;;;;6.32;71.69;98246.75;4875463;28;103278;-80
2021/03/14 08:48:06;;;;;;;2.27;0.93;;;;;;;6.53;70.90;98245.44;4880699;28;104804;-79
2021/03/14 08:50:38;;;;;;;1.80;1.00;;;;;;;6.16;72.07;98236.38;4873555;28;106691;-80
2021/03/14 08:53:14;;;;;;;3.17;1.10;;;;;;;6.25;72.20;98255.97;4876201;28;103033;-81
2021/03/14 08:55:59;;;;;;;3.97;1.20;;;;;;;6.18;71.26;98254.63;4873256;28;102970;-77
2021/03/14 08:58:33;;;;;;;2.17;0.93;;;;;;;6.61;71.53;98263.31;4874369;28;104980;-77
2021/03/14 09:01:10;;;;;;;2.03;1.10;;;;;;;6.60;71.55;98256.38;4876337;28;103326;-77
2021/03/14 09:04:15;;;;;;;3.07;1.33;;;;;;;6.43;72.51;98277.59;4853542;28;103122;-79
2021/03/14 09:06:49;;;;;;;3.13;1.20;;;;;;;6.40;70.82;98271.59;4878117;28;103181;-77
2021/03/14 09:09:21;;;;;;;3.07;1.33;;;;;;;6.48;70.78;98273.75;4873670;28;103262;-78
2021/03/14 09:11:59;;;;;;;1.37;0.80;;;;;;;6.53;70.66;98281.34;4860427;28;106962;-77
2021/03/14 09:14:48;;;;;;;4.30;1.20;;;;;;;6.63;70.56;98277.19;4873300;28;102854;-77
2021/03/14 09:17:24;;;;;;;2.23;1.10;;;;;;;6.54;70.59;98283.03;4875666;28;103145;-79
2021/03/14 09:20:00;;;;;;;3.23;1.20;;;;;;;7.38;68.03;98276.69;4874926;28;103496;-80
2021/03/14 09:22:34;;;;;;;1.77;1.00;;;;;;;7.36;69.05;98276.75;4871980;28;104361;-77
2021/03/14 09:25:13;;;;;;;1.90;1.00;;;;;;;6.86;70.28;98280.03;4876809;28;103064;-81
2021/03/14 09:27:44;;;;;;;1.23;1.10;;;;;;;6.72;70.91;98287.09;4856900;28;103102;-79
2021/03/14 09:30:17;;;;;;;3.30;1.10;;;;;;;6.68;70.62;98286.44;4875096;28;103610;-78
2021/03/14 09:32:49;;;;;;;2.03;0.90;;;;;;;6.45;70.16;98287.06;4856934;28;106834;-81
2021/03/14 09:35:25;;;;;;;3.57;1.27;;;;;;;6.68;70.43;98283.00;4873334;28;103099;-79
2021/03/14 09:37:58;;;;;;;2.77;1.20;;;;;;;6.85;70.01;98293.25;4877300;28;103445;-77
2021/03/14 09:40:28;;;;;;;2.07;0.90;;;;;;;6.74;70.32;98306.22;4874560;28;104135;-78
2021/03/14 09:43:13;;;;;;;2.50;0.90;;;;;;;6.78;70.39;98291.97;4877519;28;103717;-77
2021/03/14 09:45:58;;;;;;;3.27;0.80;;;;;;;6.89;69.10;98297.38;4876589;28;103207;-82
2021/03/14 09:48:27;;;;;;;2.40;1.20;;;;;;;7.17;70.26;98299.06;4886920;28;103155;-84
2021/03/14 09:50:57;;;;;;;1.83;0.80;;;;;;;6.99;69.74;98296.69;4881572;28;104428;-85
2021/03/14 09:53:28;;;;;;;1.40;0.63;;;;;;;7.12;69.39;98296.75;4888568;28;112337;-82
2021/03/14 09:55:59;;;;;;;1.70;0.93;;;;;;;7.09;69.51;98299.59;4890102;28;102842;-83
2021/03/14 10:02:37;;;;;;;1.17;0.80;;;;;;;7.09;69.99;98296.09;4958209;27;105027;-84
2021/03/14 10:05:25;;;;;;;2.30;1.10;;;;;;;6.97;69.62;98303.00;5021330;27;104949;-84
2021/03/14 10:07:55;;;;;;;2.07;0.70;;;;;;;7.03;70.70;98292.09;5018089;28;106417;-83
2021/03/14 10:10:23;;;;;;;1.60;0.87;;;;;;;7.10;71.37;98293.41;5014589;28;107550;-86
2021/03/14 10:12:59;;;;;;;3.10;1.20;;;;;;;7.05;69.78;98292.81;5016843;27;102918;-85
2021/03/14 10:15:30;;;;;;;2.60;0.87;;;;;;;7.16;69.66;98292.97;5014806;28;103083;-88
2021/03/14 10:18:07;;;;;;;3.13;1.33;;;;;;;6.77;69.69;98292.91;5022528;27;104185;-88
2021/03/14 10:20:40;;;;;;;2.57;0.83;;;;;;;6.90;69.67;98302.56;5012482;28;105716;-87
2021/03/14 10:23:22;;;;;;;2.97;1.07;;;;;;;6.69;67.36;98293.41;4997854;28;103794;-85
2021/03/14 10:26:06;;;;;;;2.17;0.93;;;;;;;6.89;68.19;98300.00;5028525;27;102971;-83
2021/03/14 10:28:48;;;;;;;3.67;1.43;;;;;;;6.85;66.83;98295.88;5027335;27;106181;-88
2021/03/14 10:31:39;;;;;;;2.73;0.97;;;;;;;6.67;66.14;98294.44;5004503;28;107178;-85
2021/03/14 10:34:18;;;;;;;2.50;1.00;;;;;;;7.13;66.76;98292.34;5013468;28;103004;-86
2021/03/14 10:36:53;;;;;;;2.53;0.90;;;;;;;6.93;65.61;98291.00;5008781;28;102846;-89
2021/03/14 10:39:34;;;;;;;2.07;1.00;;;;;;;7.08;66.82;98290.00;4991512;28;106156;-86
2021/03/14 10:42:26;;;;;;;4.57;1.17;;;;;;;6.79;66.27;98294.50;5010678;28;105131;-86
2021/03/14 10:45:10;;;;;;;1.30;0.97;;;;;;;7.04;66.44;98288.53;5018338;28;103175;-84
2021/03/14 10:47:38;;;;;;;1.83;0.80;;;;;;;7.34;65.67;98281.28;4994271;28;102869;-85
2021/03/14 10:50:17;;;;;;;3.57;1.10;;;;;;;7.53;65.73;98279.13;4999817;28;115863;-85
2021/03/14 10:53:06;;;;;;;2.03;1.03;;;;;;;7.97;65.17;98275.28;5017907;28;104759;-85
2021/03/14 10:55:36;;;;;;;2.13;1.00;;;;;;;7.78;64.03;98270.41;5010021;28;103101;-86
2021/03/14 10:58:06;;;;;;;2.70;1.03;;;;;;;7.68;63.95;98277.25;5017490;27;102831;-86
2021/03/14 11:00:34;;;;;;;1.60;1.03;;;;;;;7.70;64.36;98292.91;5018493;28;104012;-85
2021/03/14 11:03:11;;;;;;;2.83;0.87;;;;;;;7.97;64.23;98285.81;5027030;27;104758;-84
2021/03/14 11:05:42;;;;;;;0.97;0.70;;;;;;;7.78;64.27;98280.09;5014581;28;104005;-86
2021/03/14 11:08:13;;;;;;;1.03;0.70;;;;;;;7.90;62.25;98277.47;5029261;27;104145;-86
2021/03/14 11:10:56;;;;;;;3.13;0.90;;;;;;;7.96;62.80;98278.84;5012185;28;104317;-86
2021/03/14 11:13:43;;;;;;;1.83;0.73;;;;;;;8.13;62.87;98289.06;5003349;28;103684;-85
2021/03/14 11:16:40;;;;;;;3.57;1.07;;;;;;;8.06;62.74;98279.91;5014183;28;102848;-88
2021/03/14 11:19:20;;;;;;;1.90;1.00;;;;;;;8.40;61.31;98281.91;4988248;28;103196;-87
2021/03/14 11:21:57;;;;;;;2.37;1.00;;;;;;;8.40;61.67;98279.28;4990589;28;105770;-88
2021/03/14 11:24:43;;;;;;;5.43;1.00;;;;;;;8.32;61.31;98275.50;5000803;28;105317;-86
2021/03/14 11:27:15;;;;;;;1.70;0.80;;;;;;;8.41;62.85;98280.97;5012691;28;102678;-89
2021/03/14 11:29:43;;;;;;;3.47;1.00;;;;;;;8.19;59.83;98286.03;5009958;28;105818;-95
2021/03/14 11:32:16;;;;;;;2.67;1.00;;;;;;;8.63;58.54;98269.75;4987716;28;108122;-86
2021/03/14 11:34:56;;;;;;;1.10;0.90;;;;;;;9.01;58.09;98274.94;5005757;28;104806;-83
2021/03/14 11:37:45;;;;;;;3.67;0.90;;;;;;;8.57;57.29;98276.31;5004358;28;102910;-85
2021/03/14 11:40:37;;;;;;;4.40;1.03;;;;;;;8.62;58.10;98271.56;5017165;28;103172;-85
2021/03/14 11:43:39;;;;;;;3.77;1.40;;;;;;;8.29;58.02;98268.66;4992877;28;104175;-87
2021/03/14 11:46:16;;;;;;;3.37;1.00;;;;;;;8.48;57.95;98261.16;5005296;28;103847;-85
2021/03/14 11:48:48;;;;;;;4.73;0.90;;;;;;;8.43;58.24;98265.91;4983210;28;103180;-91
2021/03/14 11:51:21;;;;;;;2.83;1.37;;;;;;;8.23;59.14;98273.47;4999948;28;102830;-80
2021/03/14 11:53:50;;;;;;;3.57;1.17;;;;;;;8.48;59.71;98271.69;5001494;28;105743;-86
2021/03/14 11:56:18;;;;;;;3.17;1.40;;;;;;;8.17;60.00;98267.69;4995801;28;105433;-86
2021/03/14 11:58:51;;;;;;;3.50;1.50;;;;;;;8.25;60.70;98267.19;4997726;28;103046;-82
2021/03/14 12:01:23;;;;;;;3.50;1.40;;;;;;;8.34;61.25;98269.19;4999415;28;103014;-81